Time;durP1;ratioP1;P1;durP2;ratioP2;P2;SDS_P1;SDS_P2;PMS_P1;PMS_P2;Temp;Humidity;BMP_temperature;BMP_pressure;BME280_temperature;BME280_humidity;BME280_pressure;Samples;Min_cycle;Max_cycle;Signal;HPM_P1;HPM_P2
2022/01/09 00:00:23;;;;;;;12.55;9.18;;;;;;;;;;4988465;28;99629;-69
2022/01/09 00:02:50;;;;;;;10.52;9.60;;;;;;;;;;4993253;28;100360;-70
2022/01/09 00:05:17;;;;;;;9.70;8.90;;;;;;;;;;4987463;28;99421;-69
2022/01/09 00:07:44;;;;;;;9.63;8.73;;;;;;;;;;4988688;28;100424;-69
2022/01/09 00:10:11;;;;;;;12.57;10.75;;;;;;;;;;4982251;28;99822;-69
2022/01/09 00:12:38;;;;;;;8.00;6.82;;;;;;;;;;4987196;28;100143;-69
2022/01/09 00:15:05;;;;;;;10.45;9.60;;;;;;;;;;4989006;28;99589;-69
2022/01/09 00:17:32;;;;;;;11.98;10.98;;;;;;;;;;4989210;28;97929;-69
2022/01/09 00:19:58;;;;;;;9.82;9.07;;;;;;;;;;4987488;28;98996;-69
2022/01/09 00:22:35;;;;;;;19.35;9.57;;;;;;;;;;4989397;28;99565;-69
2022/01/09 00:25:02;;;;;;;9.25;8.45;;;;;;;;;;4985468;28;101150;-69
2022/01/09 00:27:28;;;;;;;8.18;6.10;;;;;;;;;;4985637;28;99558;-69
2022/01/09 00:29:55;;;;;;;6.20;4.65;;;;;;;;;;4989301;28;98629;-69
2022/01/09 00:32:21;;;;;;;8.95;4.43;;;;;;;;;;4989684;28;100025;-69
2022/01/09 00:34:47;;;;;;;11.88;6.07;;;;;;;;;;4987583;28;99530;-69
2022/01/09 00:37:14;;;;;;;16.20;5.07;;;;;;;;;;4985782;28;99340;-68
2022/01/09 00:39:40;;;;;;;14.73;4.70;;;;;;;;;;4985955;28;99895;-69
2022/01/09 00:42:07;;;;;;;16.00;3.65;;;;;;;;;;4987959;28;98604;-69
2022/01/09 00:44:33;;;;;;;23.90;4.18;;;;;;;;;;4985434;28;98583;-69
2022/01/09 00:47:00;;;;;;;23.63;4.97;;;;;;;;;;4989640;28;99880;-69
2022/01/09 00:49:27;;;;;;;29.85;4.45;;;;;;;;;;4987428;28;100586;-69
2022/01/09 00:51:53;;;;;;;33.60;4.53;;;;;;;;;;4989072;28;100026;-69
2022/01/09 00:54:20;;;;;;;33.53;4.70;;;;;;;;;;4985348;28;99962;-69
2022/01/09 00:56:46;;;;;;;32.67;6.63;;;;;;;;;;4984744;28;98696;-69
2022/01/09 00:59:12;;;;;;;32.85;4.82;;;;;;;;;;4988283;28;99042;-69
2022/01/09 01:01:39;;;;;;;39.83;6.82;;;;;;;;;;4988225;28;101053;-69
2022/01/09 01:04:05;;;;;;;46.92;6.75;;;;;;;;;;4988997;28;98505;-69
2022/01/09 01:06:31;;;;;;;23.50;5.22;;;;;;;;;;4988974;28;99915;-71
2022/01/09 01:08:58;;;;;;;43.75;6.25;;;;;;;;;;4990167;28;100438;-70
2022/01/09 01:11:24;;;;;;;44.83;5.85;;;;;;;;;;4988036;28;99200;-69
2022/01/09 01:13:50;;;;;;;54.10;7.47;;;;;;;;;;4988585;28;100730;-69
2022/01/09 01:16:17;;;;;;;40.25;5.63;;;;;;;;;;4987826;28;98600;-69
2022/01/09 01:18:45;;;;;;;43.13;6.10;;;;;;;;;;4987879;28;100066;-69
2022/01/09 01:21:12;;;;;;;40.88;5.45;;;;;;;;;;4982698;28;99719;-69
2022/01/09 01:23:39;;;;;;;52.30;6.25;;;;;;;;;;4986285;28;99020;-69
2022/01/09 01:26:06;;;;;;;44.75;6.75;;;;;;;;;;4989053;28;99135;-70
2022/01/09 01:28:33;;;;;;;41.33;7.43;;;;;;;;;;4987561;28;99565;-69
2022/01/09 01:30:59;;;;;;;43.28;5.88;;;;;;;;;;4992139;28;98937;-69
2022/01/09 01:33:26;;;;;;;44.00;7.18;;;;;;;;;;4986930;28;100130;-69
2022/01/09 01:35:52;;;;;;;46.35;8.43;;;;;;;;;;4988216;28;98557;-69
2022/01/09 01:38:19;;;;;;;46.63;7.28;;;;;;;;;;4986985;28;100158;-69
2022/01/09 01:40:45;;;;;;;30.08;4.43;;;;;;;;;;4987840;28;100545;-69
2022/01/09 01:43:12;;;;;;;41.90;9.35;;;;;;;;;;4988196;28;98906;-69
2022/01/09 01:45:38;;;;;;;32.10;6.20;;;;;;;;;;4982335;28;98965;-69
2022/01/09 01:48:06;;;;;;;41.53;6.57;;;;;;;;;;4987424;28;99841;-69
2022/01/09 01:50:37;;;;;;;34.72;7.53;;;;;;;;;;4981590;28;98608;-69
2022/01/09 01:53:09;;;;;;;35.13;5.65;;;;;;;;;;4990865;28;100061;-69
2022/01/09 01:55:37;;;;;;;30.20;5.38;;;;;;;;;;4986205;28;97980;-69
2022/01/09 01:58:04;;;;;;;32.80;5.20;;;;;;;;;;4985402;28;99123;-69
2022/01/09 02:00:31;;;;;;;35.70;5.70;;;;;;;;;;4980430;28;100293;-70
2022/01/09 02:02:58;;;;;;;27.73;5.80;;;;;;;;;;4987601;28;100819;-70
2022/01/09 02:05:25;;;;;;;38.58;4.78;;;;;;;;;;4987248;28;100401;-70
2022/01/09 02:07:52;;;;;;;35.97;6.35;;;;;;;;;;4988065;28;100448;-69
2022/01/09 02:10:18;;;;;;;23.05;5.45;;;;;;;;;;4984521;28;100109;-68
2022/01/09 02:12:44;;;;;;;25.00;4.43;;;;;;;;;;4990702;28;100257;-69
2022/01/09 02:15:29;;;;;;;32.40;5.93;;;;;;;;;;4978921;28;98635;-69
2022/01/09 02:17:56;;;;;;;31.80;5.68;;;;;;;;;;4987873;28;100036;-69
2022/01/09 02:20:22;;;;;;;39.78;6.63;;;;;;;;;;4979489;28;99500;-69
2022/01/09 02:22:49;;;;;;;31.17;6.20;;;;;;;;;;4988002;28;99652;-69
2022/01/09 02:25:15;;;;;;;29.33;4.40;;;;;;;;;;4987442;28;99784;-69
2022/01/09 02:27:42;;;;;;;30.27;5.40;;;;;;;;;;4982420;28;101159;-69
2022/01/09 02:30:08;;;;;;;41.83;6.18;;;;;;;;;;4987683;28;98621;-70
2022/01/09 02:32:35;;;;;;;36.92;6.18;;;;;;;;;;4983627;28;100113;-70
2022/01/09 02:35:01;;;;;;;42.22;6.22;;;;;;;;;;4989884;28;99977;-70
2022/01/09 02:37:28;;;;;;;39.25;5.68;;;;;;;;;;4987440;28;100574;-70
2022/01/09 02:39:54;;;;;;;35.65;4.40;;;;;;;;;;4983607;28;100613;-70
2022/01/09 02:42:23;;;;;;;38.33;7.05;;;;;;;;;;4987410;28;99306;-69
2022/01/09 02:44:50;;;;;;;31.80;4.30;;;;;;;;;;4988155;28;99377;-70
2022/01/09 02:47:16;;;;;;;37.50;5.55;;;;;;;;;;4979022;28;100376;-70
2022/01/09 02:49:48;;;;;;;28.63;5.25;;;;;;;;;;4992399;28;98637;-69
2022/01/09 02:52:29;;;;;;;23.67;4.60;;;;;;;;;;4990603;28;100417;-70
2022/01/09 02:55:14;;;;;;;31.92;5.75;;;;;;;;;;4985314;28;99653;-69
2022/01/09 02:57:41;;;;;;;25.55;5.65;;;;;;;;;;4988670;28;99105;-69
2022/01/09 03:00:09;;;;;;;26.98;5.00;;;;;;;;;;4990145;28;99873;-70
2022/01/09 03:02:36;;;;;;;29.67;4.93;;;;;;;;;;4990468;28;98887;-69
2022/01/09 03:05:03;;;;;;;31.92;5.47;;;;;;;;;;4990825;28;99154;-70
2022/01/09 03:07:29;;;;;;;27.70;5.45;;;;;;;;;;4990440;28;100270;-68
2022/01/09 03:09:55;;;;;;;33.83;4.88;;;;;;;;;;4990531;28;98040;-70
2022/01/09 03:12:23;;;;;;;30.65;4.60;;;;;;;;;;4990491;28;98777;-70
2022/01/09 03:14:50;;;;;;;41.28;6.38;;;;;;;;;;4989604;28;100108;-70
2022/01/09 03:17:16;;;;;;;34.60;6.00;;;;;;;;;;4986594;28;99471;-68
2022/01/09 03:19:45;;;;;;;20.73;4.50;;;;;;;;;;4988696;28;100407;-69
2022/01/09 03:22:12;;;;;;;32.83;6.35;;;;;;;;;;4989147;28;98889;-70
2022/01/09 03:24:38;;;;;;;22.60;4.82;;;;;;;;;;4989974;28;100753;-70
2022/01/09 03:27:05;;;;;;;25.77;4.18;;;;;;;;;;4990245;28;99496;-68
2022/01/09 03:29:31;;;;;;;25.25;4.75;;;;;;;;;;4989139;28;98598;-69
2022/01/09 03:31:59;;;;;;;12.70;3.50;;;;;;;;;;4991143;28;99611;-68
2022/01/09 03:34:26;;;;;;;20.48;4.32;;;;;;;;;;4988701;28;99541;-69
2022/01/09 03:36:52;;;;;;;29.17;5.40;;;;;;;;;;4989395;28;99587;-69
2022/01/09 03:39:19;;;;;;;25.20;4.65;;;;;;;;;;4989554;28;99489;-69
2022/01/09 03:41:45;;;;;;;22.88;4.45;;;;;;;;;;4992798;28;101217;-68
2022/01/09 03:44:11;;;;;;;24.70;4.40;;;;;;;;;;4989256;28;100673;-69
2022/01/09 03:46:38;;;;;;;24.60;4.07;;;;;;;;;;4989603;28;100262;-69
2022/01/09 03:49:04;;;;;;;27.70;4.30;;;;;;;;;;4989903;28;99037;-69
2022/01/09 03:51:36;;;;;;;23.48;4.30;;;;;;;;;;4989592;28;99921;-69
2022/01/09 03:54:04;;;;;;;23.55;4.20;;;;;;;;;;4988935;28;99472;-70
2022/01/09 03:56:30;;;;;;;19.48;4.30;;;;;;;;;;4990237;28;98568;-69
2022/01/09 03:58:56;;;;;;;32.25;4.53;;;;;;;;;;4990592;28;99193;-70
2022/01/09 04:01:23;;;;;;;24.00;5.10;;;;;;;;;;4988378;28;99483;-69
2022/01/09 04:03:50;;;;;;;25.42;5.57;;;;;;;;;;4993597;28;98647;-70
2022/01/09 04:06:17;;;;;;;17.63;3.50;;;;;;;;;;4986672;28;100921;-69
2022/01/09 04:08:44;;;;;;;22.65;3.85;;;;;;;;;;4983427;28;99653;-69
2022/01/09 04:11:12;;;;;;;18.38;3.85;;;;;;;;;;4987630;28;100014;-69
2022/01/09 04:13:38;;;;;;;17.10;3.42;;;;;;;;;;4989311;28;100210;-69
2022/01/09 04:16:05;;;;;;;18.38;3.78;;;;;;;;;;4989271;28;98552;-69
2022/01/09 04:18:31;;;;;;;15.00;3.10;;;;;;;;;;4988907;28;100367;-69
2022/01/09 04:20:58;;;;;;;17.70;3.60;;;;;;;;;;4987234;28;100141;-69
2022/01/09 04:23:24;;;;;;;19.55;3.83;;;;;;;;;;4993795;28;98338;-69
2022/01/09 04:25:51;;;;;;;23.02;4.57;;;;;;;;;;4983334;28;100072;-69
2022/01/09 04:28:18;;;;;;;23.90;3.95;;;;;;;;;;4989844;28;98557;-69
2022/01/09 04:30:44;;;;;;;17.20;3.45;;;;;;;;;;4988800;28;101097;-70
2022/01/09 04:33:11;;;;;;;28.48;3.78;;;;;;;;;;4988878;28;100384;-70
2022/01/09 04:35:41;;;;;;;40.90;6.22;;;;;;;;;;4983829;28;98712;-70
2022/01/09 04:38:07;;;;;;;24.27;5.30;;;;;;;;;;4989761;28;100116;-70
2022/01/09 04:40:35;;;;;;;26.60;4.68;;;;;;;;;;4988355;28;100189;-69
2022/01/09 04:43:04;;;;;;;25.83;4.40;;;;;;;;;;4989417;28;98558;-69
2022/01/09 04:45:30;;;;;;;18.60;4.78;;;;;;;;;;4984420;28;99637;-69
2022/01/09 04:48:01;;;;;;;16.20;3.40;;;;;;;;;;4989599;28;97896;-69
2022/01/09 04:50:30;;;;;;;19.77;5.22;;;;;;;;;;4989487;28;98658;-69
2022/01/09 04:53:00;;;;;;;21.85;4.82;;;;;;;;;;4986567;28;98627;-69
2022/01/09 04:55:27;;;;;;;22.15;3.40;;;;;;;;;;4980781;28;99282;-69
2022/01/09 04:57:54;;;;;;;18.00;4.60;;;;;;;;;;4988934;28;100076;-69
2022/01/09 05:00:21;;;;;;;16.70;4.38;;;;;;;;;;4971533;28;100240;-69
2022/01/09 05:02:47;;;;;;;10.82;2.95;;;;;;;;;;4988978;28;98562;-69
2022/01/09 05:05:14;;;;;;;19.58;4.53;;;;;;;;;;4989227;28;100080;-69
2022/01/09 05:07:41;;;;;;;18.10;3.08;;;;;;;;;;4991884;28;100205;-69
2022/01/09 05:10:08;;;;;;;14.98;3.85;;;;;;;;;;4986805;28;99980;-69
2022/01/09 05:12:35;;;;;;;13.10;3.10;;;;;;;;;;4987750;28;98599;-69
2022/01/09 05:15:03;;;;;;;15.57;3.42;;;;;;;;;;4983684;28;99326;-70
2022/01/09 05:17:29;;;;;;;16.20;3.38;;;;;;;;;;4988915;28;100671;-69
2022/01/09 05:19:58;;;;;;;11.02;3.25;;;;;;;;;;4982467;28;101241;-70
2022/01/09 05:22:25;;;;;;;16.90;3.40;;;;;;;;;;4987603;28;98683;-69
2022/01/09 05:24:52;;;;;;;24.42;4.05;;;;;;;;;;4984727;28;99689;-69
2022/01/09 05:27:18;;;;;;;17.77;4.47;;;;;;;;;;4988087;28;100349;-69
2022/01/09 05:29:45;;;;;;;22.27;3.97;;;;;;;;;;4990505;28;98603;-69
2022/01/09 05:32:11;;;;;;;20.83;3.75;;;;;;;;;;4988218;28;99976;-69
2022/01/09 05:34:38;;;;;;;21.15;3.70;;;;;;;;;;4988189;28;98580;-69
2022/01/09 05:37:05;;;;;;;26.40;5.13;;;;;;;;;;4987958;28;99099;-69
2022/01/09 05:39:32;;;;;;;26.20;5.10;;;;;;;;;;4983891;28;100806;-69
2022/01/09 05:41:59;;;;;;;17.45;4.20;;;;;;;;;;4988586;28;98553;-69
2022/01/09 05:44:27;;;;;;;25.20;3.65;;;;;;;;;;4988148;28;101120;-69
2022/01/09 05:46:54;;;;;;;27.85;4.45;;;;;;;;;;4988343;28;100708;-69
2022/01/09 05:49:20;;;;;;;20.73;5.13;;;;;;;;;;4987891;28;98553;-68
2022/01/09 05:51:46;;;;;;;21.98;3.58;;;;;;;;;;4991021;28;99966;-69
2022/01/09 05:54:13;;;;;;;17.13;5.45;;;;;;;;;;4987969;28;98576;-68
2022/01/09 05:56:39;;;;;;;23.80;4.00;;;;;;;;;;4988255;28;100160;-69
2022/01/09 05:59:05;;;;;;;18.67;3.90;;;;;;;;;;4982341;28;100442;-69
2022/01/09 06:01:32;;;;;;;20.67;4.28;;;;;;;;;;4988753;28;97839;-69
2022/01/09 06:03:58;;;;;;;23.88;5.30;;;;;;;;;;4983706;28;99286;-69
2022/01/09 06:06:25;;;;;;;18.52;5.20;;;;;;;;;;4986735;28;99750;-69
2022/01/09 06:08:51;;;;;;;17.95;3.67;;;;;;;;;;4987473;28;99344;-69
2022/01/09 06:11:17;;;;;;;23.92;4.00;;;;;;;;;;4981717;28;100820;-68
2022/01/09 06:13:44;;;;;;;25.83;4.97;;;;;;;;;;4988000;28;99501;-68
2022/01/09 06:16:10;;;;;;;25.75;3.35;;;;;;;;;;4988292;28;100603;-69
2022/01/09 06:18:36;;;;;;;21.45;3.88;;;;;;;;;;4986617;28;100442;-68
2022/01/09 06:21:03;;;;;;;18.95;4.22;;;;;;;;;;4983829;28;99511;-69
2022/01/09 06:23:29;;;;;;;17.23;3.22;;;;;;;;;;4984487;28;100176;-71
2022/01/09 06:25:55;;;;;;;17.67;3.25;;;;;;;;;;4980575;28;99640;-69
2022/01/09 06:28:22;;;;;;;18.75;3.28;;;;;;;;;;4988082;28;98592;-70
2022/01/09 06:30:48;;;;;;;17.98;3.72;;;;;;;;;;4987000;28;100325;-70
2022/01/09 06:33:15;;;;;;;20.25;5.25;;;;;;;;;;4989569;28;100085;-70
2022/01/09 06:35:42;;;;;;;16.35;3.95;;;;;;;;;;4986339;28;99656;-70
2022/01/09 06:38:08;;;;;;;17.67;4.53;;;;;;;;;;4987747;28;100741;-70
2022/01/09 06:40:35;;;;;;;12.55;3.72;;;;;;;;;;4988089;28;98628;-70
2022/01/09 06:43:02;;;;;;;19.85;3.40;;;;;;;;;;4987933;28;100174;-70
2022/01/09 06:45:28;;;;;;;16.42;3.60;;;;;;;;;;4986722;28;99726;-70
2022/01/09 06:47:55;;;;;;;13.70;3.45;;;;;;;;;;4986844;28;99035;-70
2022/01/09 06:50:22;;;;;;;18.35;3.50;;;;;;;;;;4989250;28;100778;-70
2022/01/09 06:52:48;;;;;;;12.65;3.33;;;;;;;;;;4983858;28;100239;-70
2022/01/09 06:55:15;;;;;;;16.83;2.83;;;;;;;;;;4989598;28;98695;-70
2022/01/09 06:57:41;;;;;;;15.00;3.70;;;;;;;;;;4987341;28;100214;-70
2022/01/09 07:00:09;;;;;;;11.40;3.00;;;;;;;;;;4986610;28;98632;-70
2022/01/09 07:02:36;;;;;;;6.32;1.65;;;;;;;;;;4987176;28;99118;-70
2022/01/09 07:05:03;;;;;;;12.18;2.42;;;;;;;;;;4986788;28;100288;-70
2022/01/09 07:07:29;;;;;;;9.10;2.17;;;;;;;;;;4986656;28;100259;-70
2022/01/09 07:09:56;;;;;;;11.55;2.08;;;;;;;;;;4986249;28;99833;-70
2022/01/09 07:12:22;;;;;;;14.07;2.65;;;;;;;;;;4987059;28;100045;-69
2022/01/09 07:14:48;;;;;;;16.30;2.72;;;;;;;;;;4987153;28;98237;-69
2022/01/09 07:17:15;;;;;;;7.85;2.35;;;;;;;;;;4990197;28;99293;-70
2022/01/09 07:19:41;;;;;;;8.75;2.22;;;;;;;;;;4987621;28;99976;-70
2022/01/09 07:22:07;;;;;;;13.23;2.65;;;;;;;;;;4989838;28;99295;-69
2022/01/09 07:24:34;;;;;;;13.70;2.60;;;;;;;;;;4986268;28;100513;-70
2022/01/09 07:27:00;;;;;;;9.25;2.13;;;;;;;;;;4983451;28;101017;-71
2022/01/09 07:29:26;;;;;;;12.23;2.88;;;;;;;;;;4971199;28;99975;-73
2022/01/09 07:31:53;;;;;;;6.18;2.22;;;;;;;;;;4974322;28;99600;-70
2022/01/09 07:34:19;;;;;;;6.70;2.00;;;;;;;;;;4979343;28;99502;-70
2022/01/09 07:36:46;;;;;;;7.10;2.72;;;;;;;;;;4974653;28;100467;-70
2022/01/09 07:39:12;;;;;;;9.77;2.60;;;;;;;;;;4984774;28;99569;-69
2022/01/09 07:41:39;;;;;;;9.95;2.15;;;;;;;;;;4972582;28;98734;-69
2022/01/09 07:44:05;;;;;;;8.77;2.00;;;;;;;;;;4974720;28;99836;-70
2022/01/09 07:46:31;;;;;;;11.75;2.38;;;;;;;;;;4972460;28;99715;-70
2022/01/09 07:48:58;;;;;;;8.27;2.03;;;;;;;;;;4972468;28;100704;-70
2022/01/09 07:51:24;;;;;;;4.13;2.25;;;;;;;;;;4971176;28;100089;-70
2022/01/09 07:54:11;;;;;;;11.60;2.38;;;;;;;;;;4978637;28;98725;-69
2022/01/09 07:56:37;;;;;;;11.02;2.33;;;;;;;;;;4972788;28;99892;-69
2022/01/09 07:59:03;;;;;;;11.95;2.70;;;;;;;;;;4978978;28;100585;-69
2022/01/09 08:01:30;;;;;;;12.50;4.38;;;;;;;;;;4975268;28;99157;-69
2022/01/09 08:03:56;;;;;;;14.95;2.45;;;;;;;;;;4970930;28;99637;-70
2022/01/09 08:06:23;;;;;;;7.47;2.50;;;;;;;;;;4986761;28;98777;-70
2022/01/09 08:08:49;;;;;;;6.95;2.15;;;;;;;;;;4981396;28;99815;-69
2022/01/09 08:11:17;;;;;;;9.68;2.65;;;;;;;;;;4969839;28;101098;-69
2022/01/09 08:13:44;;;;;;;6.28;1.83;;;;;;;;;;4972740;28;100426;-69
2022/01/09 08:16:11;;;;;;;5.03;2.45;;;;;;;;;;4978809;28;100041;-69
2022/01/09 08:18:37;;;;;;;12.07;3.38;;;;;;;;;;4970194;28;100199;-69
2022/01/09 08:21:03;;;;;;;15.05;3.28;;;;;;;;;;4976386;28;99803;-69
2022/01/09 08:23:30;;;;;;;7.95;3.13;;;;;;;;;;4970525;28;99689;-69
2022/01/09 08:25:56;;;;;;;19.25;3.42;;;;;;;;;;4972349;28;98583;-69
2022/01/09 08:28:23;;;;;;;12.43;3.40;;;;;;;;;;4971936;28;99360;-69
2022/01/09 08:30:49;;;;;;;20.27;3.03;;;;;;;;;;4979028;28;100051;-69
2022/01/09 08:33:15;;;;;;;13.45;2.85;;;;;;;;;;4974605;28;99107;-69
2022/01/09 08:35:42;;;;;;;12.82;3.03;;;;;;;;;;4971044;28;99743;-69
2022/01/09 08:38:08;;;;;;;13.18;3.15;;;;;;;;;;4970710;28;100240;-69
2022/01/09 08:40:34;;;;;;;12.27;3.15;;;;;;;;;;4971727;28;99325;-69
2022/01/09 08:43:01;;;;;;;9.57;2.72;;;;;;;;;;4973721;28;99507;-69
2022/01/09 08:45:28;;;;;;;22.15;3.45;;;;;;;;;;4971599;28;98542;-69
2022/01/09 08:47:54;;;;;;;14.52;3.00;;;;;;;;;;4971719;28;99727;-69
2022/01/09 08:50:21;;;;;;;10.10;2.40;;;;;;;;;;4976595;28;100850;-70
2022/01/09 08:52:47;;;;;;;12.63;2.70;;;;;;;;;;4978589;28;98600;-69
2022/01/09 08:55:13;;;;;;;12.35;2.70;;;;;;;;;;4978016;28;99696;-69
2022/01/09 08:57:40;;;;;;;11.88;2.83;;;;;;;;;;4969771;28;99828;-69
2022/01/09 09:00:07;;;;;;;11.40;2.35;;;;;;;;;;4969392;28;99511;-69
2022/01/09 09:02:33;;;;;;;12.98;2.90;;;;;;;;;;4974802;28;100659;-69
2022/01/09 09:05:00;;;;;;;13.18;2.83;;;;;;;;;;4979146;28;99856;-69
2022/01/09 09:07:26;;;;;;;8.70;2.50;;;;;;;;;;4981770;28;99215;-69
2022/01/09 09:09:53;;;;;;;9.88;2.50;;;;;;;;;;4973756;28;99449;-70
2022/01/09 09:12:19;;;;;;;11.98;3.00;;;;;;;;;;4975622;28;99834;-70
2022/01/09 09:14:49;;;;;;;15.80;3.55;;;;;;;;;;4975470;28;100112;-70
2022/01/09 09:17:15;;;;;;;18.02;3.38;;;;;;;;;;4970880;28;101560;-70
2022/01/09 09:19:42;;;;;;;9.18;2.78;;;;;;;;;;4976894;28;98718;-69
2022/01/09 09:22:08;;;;;;;24.27;3.72;;;;;;;;;;4968119;28;99091;-69
2022/01/09 09:24:35;;;;;;;12.23;3.13;;;;;;;;;;4969043;28;100631;-69
2022/01/09 09:27:01;;;;;;;16.63;3.35;;;;;;;;;;4973703;28;98640;-70
2022/01/09 09:29:27;;;;;;;19.92;2.90;;;;;;;;;;4971836;28;99583;-69
2022/01/09 09:31:54;;;;;;;21.40;3.55;;;;;;;;;;4972268;28;98691;-69
2022/01/09 09:34:20;;;;;;;19.58;4.15;;;;;;;;;;4980012;28;100119;-69
2022/01/09 09:36:47;;;;;;;17.30;4.05;;;;;;;;;;4968810;28;99857;-70
2022/01/09 09:39:14;;;;;;;16.17;2.97;;;;;;;;;;4970038;28;99327;-70
2022/01/09 09:41:41;;;;;;;10.48;3.08;;;;;;;;;;4974239;28;100075;-68
2022/01/09 09:44:09;;;;;;;11.52;2.80;;;;;;;;;;4974467;28;100211;-69
2022/01/09 09:46:36;;;;;;;10.63;3.20;;;;;;;;;;4970471;28;98678;-69
2022/01/09 09:49:02;;;;;;;14.95;2.33;;;;;;;;;;4974826;28;100886;-69
2022/01/09 09:51:30;;;;;;;15.98;3.90;;;;;;;;;;4976800;28;100073;-69
2022/01/09 09:53:57;;;;;;;11.82;3.20;;;;;;;;;;4972014;28;100195;-69
2022/01/09 09:56:24;;;;;;;10.27;2.35;;;;;;;;;;4979867;28;99399;-68
2022/01/09 09:58:51;;;;;;;7.32;2.80;;;;;;;;;;4981152;28;98541;-68
2022/01/09 10:01:27;;;;;;;20.58;4.75;;;;;;;;;;4972552;28;99510;-68
2022/01/09 10:03:55;;;;;;;11.35;2.90;;;;;;;;;;4972495;28;100070;-68
2022/01/09 10:06:40;;;;;;;7.78;2.67;;;;;;;;;;4972812;28;98231;-68
2022/01/09 10:09:16;;;;;;;6.63;2.50;;;;;;;;;;4975784;28;98889;-68
2022/01/09 10:11:45;;;;;;;7.57;2.35;;;;;;;;;;4975592;28;100006;-68
2022/01/09 10:14:13;;;;;;;14.90;2.55;;;;;;;;;;4977185;28;101289;-69
2022/01/09 10:16:39;;;;;;;13.27;2.50;;;;;;;;;;4977277;28;100686;-68
2022/01/09 10:19:06;;;;;;;12.75;2.90;;;;;;;;;;4979957;28;99971;-69
2022/01/09 10:21:32;;;;;;;9.40;2.67;;;;;;;;;;4979879;28;100668;-69
2022/01/09 10:24:03;;;;;;;9.27;2.40;;;;;;;;;;4979171;28;100406;-69
2022/01/09 10:26:30;;;;;;;9.75;2.63;;;;;;;;;;4981732;28;98958;-69
2022/01/09 10:28:57;;;;;;;7.90;2.90;;;;;;;;;;4979473;28;99530;-69
2022/01/09 10:31:26;;;;;;;10.93;2.78;;;;;;;;;;4983983;28;99576;-69
2022/01/09 10:34:10;;;;;;;11.00;3.08;;;;;;;;;;4992868;28;99360;-69
2022/01/09 10:36:51;;;;;;;9.98;2.95;;;;;;;;;;4967718;28;99337;-69
2022/01/09 10:39:28;;;;;;;14.52;2.60;;;;;;;;;;4976905;28;101097;-69
2022/01/09 10:41:58;;;;;;;17.55;2.60;;;;;;;;;;4979290;28;100983;-69
2022/01/09 10:44:27;;;;;;;15.02;3.35;;;;;;;;;;4978394;28;101258;-69
2022/01/09 10:46:58;;;;;;;11.23;2.88;;;;;;;;;;4983245;28;98679;-68
2022/01/09 10:49:35;;;;;;;15.52;3.28;;;;;;;;;;4983038;28;100544;-68
2022/01/09 10:52:18;;;;;;;14.55;3.65;;;;;;;;;;4976240;28;100330;-68
2022/01/09 10:54:48;;;;;;;11.23;3.28;;;;;;;;;;4983853;28;98629;-68
2022/01/09 10:57:32;;;;;;;11.77;2.83;;;;;;;;;;4980921;28;98945;-68
2022/01/09 11:00:07;;;;;;;24.80;3.67;;;;;;;;;;4980737;28;99889;-68
2022/01/09 11:02:36;;;;;;;19.15;3.17;;;;;;;;;;4975203;28;100094;-68
2022/01/09 11:05:03;;;;;;;13.90;3.35;;;;;;;;;;4975605;28;101337;-71
2022/01/09 11:07:30;;;;;;;18.30;3.08;;;;;;;;;;4981599;28;98601;-70
2022/01/09 11:09:58;;;;;;;13.95;3.42;;;;;;;;;;4977002;28;100040;-68
2022/01/09 11:12:31;;;;;;;17.05;4.30;;;;;;;;;;4980483;28;101032;-69
2022/01/09 11:14:59;;;;;;;13.45;3.15;;;;;;;;;;4977841;28;98927;-69
2022/01/09 11:17:27;;;;;;;12.30;3.03;;;;;;;;;;4975787;28;100375;-68
2022/01/09 11:20:17;;;;;;;9.70;2.80;;;;;;;;;;4969400;28;98597;-68
2022/01/09 11:22:44;;;;;;;12.45;2.47;;;;;;;;;;4978195;28;99918;-69
2022/01/09 11:25:15;;;;;;;16.08;3.35;;;;;;;;;;4975214;28;100163;-70
2022/01/09 11:27:44;;;;;;;16.23;2.80;;;;;;;;;;4979266;28;98676;-70
2022/01/09 11:30:20;;;;;;;16.27;3.13;;;;;;;;;;4979038;28;99301;-69
2022/01/09 11:33:01;;;;;;;26.77;4.45;;;;;;;;;;4971766;28;100556;-69
2022/01/09 11:35:46;;;;;;;7.63;2.33;;;;;;;;;;4977838;28;98785;-69
2022/01/09 11:38:12;;;;;;;10.68;2.42;;;;;;;;;;4979292;28;100200;-70
2022/01/09 11:40:39;;;;;;;13.57;2.58;;;;;;;;;;4983644;28;99416;-69
2022/01/09 11:43:14;;;;;;;9.00;2.38;;;;;;;;;;4977077;28;99688;-69
2022/01/09 11:45:40;;;;;;;11.15;2.72;;;;;;;;;;4972001;28;99546;-69
2022/01/09 11:48:07;;;;;;;6.05;2.13;;;;;;;;;;4972034;28;97863;-69
2022/01/09 11:50:34;;;;;;;9.32;3.05;;;;;;;;;;4971056;28;99295;-69
2022/01/09 11:53:00;;;;;;;13.40;3.03;;;;;;;;;;4975884;28;102193;-69
2022/01/09 11:55:38;;;;;;;15.55;3.28;;;;;;;;;;4977095;28;100554;-68
2022/01/09 11:58:08;;;;;;;17.67;3.90;;;;;;;;;;4979148;28;99994;-68
2022/01/09 12:00:42;;;;;;;14.80;3.58;;;;;;;;;;4972768;28;100037;-68
2022/01/09 12:03:27;;;;;;;9.02;2.67;;;;;;;;;;4981597;28;98603;-68
2022/01/09 12:06:01;;;;;;;13.10;2.92;;;;;;;;;;4979305;28;99600;-68
2022/01/09 12:08:47;;;;;;;21.50;4.47;;;;;;;;;;4976814;28;98699;-69
2022/01/09 12:11:14;;;;;;;15.13;2.22;;;;;;;;;;4970386;28;99176;-69
2022/01/09 12:13:41;;;;;;;17.25;3.03;;;;;;;;;;4979423;28;98786;-69
2022/01/09 12:16:09;;;;;;;13.52;3.38;;;;;;;;;;4971452;28;98636;-69
2022/01/09 12:18:39;;;;;;;16.05;3.15;;;;;;;;;;4970406;28;100521;-69
2022/01/09 12:21:06;;;;;;;11.02;2.58;;;;;;;;;;4979661;28;101715;-69
2022/01/09 12:23:32;;;;;;;19.33;3.47;;;;;;;;;;4980851;28;98583;-69
2022/01/09 12:25:58;;;;;;;5.57;2.53;;;;;;;;;;4982696;28;100987;-69
2022/01/09 12:28:26;;;;;;;5.60;2.00;;;;;;;;;;4971070;28;98586;-69
2022/01/09 12:30:54;;;;;;;4.70;1.90;;;;;;;;;;4970801;28;99171;-69
2022/01/09 12:33:27;;;;;;;2.60;1.27;;;;;;;;;;4977225;28;100420;-69
2022/01/09 12:36:05;;;;;;;6.28;1.77;;;;;;;;;;4971084;28;98560;-69
2022/01/09 12:38:33;;;;;;;5.28;1.55;;;;;;;;;;4970913;28;99675;-69
2022/01/09 12:40:59;;;;;;;3.40;1.40;;;;;;;;;;4977766;28;100194;-69
2022/01/09 12:43:26;;;;;;;5.07;1.75;;;;;;;;;;4982949;28;98897;-69
2022/01/09 12:45:53;;;;;;;8.65;2.25;;;;;;;;;;4984069;28;99878;-68
2022/01/09 12:48:20;;;;;;;6.45;2.38;;;;;;;;;;4988967;28;98658;-68
2022/01/09 12:50:47;;;;;;;6.65;2.03;;;;;;;;;;4997317;28;99243;-68
2022/01/09 12:53:19;;;;;;;6.15;1.83;;;;;;;;;;4991930;28;99876;-67
2022/01/09 12:56:01;;;;;;;4.15;2.15;;;;;;;;;;4997150;28;99883;-68
2022/01/09 12:58:29;;;;;;;7.50;2.15;;;;;;;;;;4982192;28;99056;-67
2022/01/09 13:00:56;;;;;;;8.73;3.28;;;;;;;;;;4978550;28;100671;-68
2022/01/09 13:03:25;;;;;;;7.45;2.15;;;;;;;;;;4980649;28;98308;-69
2022/01/09 13:05:53;;;;;;;8.45;2.42;;;;;;;;;;4983589;28;100046;-67
2022/01/09 13:08:20;;;;;;;7.32;2.78;;;;;;;;;;4983664;28;100236;-67
2022/01/09 13:10:54;;;;;;;10.07;2.65;;;;;;;;;;4982766;28;100878;-68
2022/01/09 13:13:22;;;;;;;9.20;2.90;;;;;;;;;;4975612;28;100686;-68
2022/01/09 13:15:48;;;;;;;11.02;2.60;;;;;;;;;;4988514;28;98655;-68
2022/01/09 13:18:15;;;;;;;8.90;2.33;;;;;;;;;;4978466;28;99871;-68
2022/01/09 13:20:42;;;;;;;11.23;2.88;;;;;;;;;;4979079;28;100453;-68
2022/01/09 13:23:09;;;;;;;10.77;3.03;;;;;;;;;;4984407;28;99114;-68
2022/01/09 13:25:42;;;;;;;8.70;2.20;;;;;;;;;;4981789;28;99274;-67
2022/01/09 13:28:22;;;;;;;11.73;2.40;;;;;;;;;;4974901;28;99477;-67
2022/01/09 13:30:54;;;;;;;11.20;3.25;;;;;;;;;;4980522;28;98595;-67
2022/01/09 13:33:21;;;;;;;3.03;1.73;;;;;;;;;;4982933;28;100683;-67
2022/01/09 13:35:47;;;;;;;10.07;3.40;;;;;;;;;;4974918;28;100842;-68
2022/01/09 13:38:13;;;;;;;12.10;3.33;;;;;;;;;;4975986;28;100940;-67
2022/01/09 13:40:40;;;;;;;11.02;2.67;;;;;;;;;;4981116;28;100281;-67
2022/01/09 13:43:09;;;;;;;8.40;2.67;;;;;;;;;;4972292;28;102081;-67
2022/01/09 13:45:37;;;;;;;14.93;3.22;;;;;;;;;;4975771;28;99522;-67
2022/01/09 13:48:05;;;;;;;10.73;2.83;;;;;;;;;;4981342;28;99578;-68
2022/01/09 13:50:51;;;;;;;11.93;2.67;;;;;;;;;;4979828;28;98922;-67
2022/01/09 13:53:18;;;;;;;19.65;3.45;;;;;;;;;;4982650;28;99871;-68
2022/01/09 13:55:45;;;;;;;11.18;3.00;;;;;;;;;;4977487;28;98701;-67
2022/01/09 13:58:15;;;;;;;13.55;3.97;;;;;;;;;;4969305;28;100399;-67
2022/01/09 14:00:44;;;;;;;13.23;2.70;;;;;;;;;;4977501;28;101162;-67
2022/01/09 14:03:10;;;;;;;20.67;4.18;;;;;;;;;;4982048;28;98559;-67
2022/01/09 14:05:39;;;;;;;13.18;3.00;;;;;;;;;;4972584;28;100070;-68
2022/01/09 14:08:06;;;;;;;17.48;3.40;;;;;;;;;;4976873;28;100951;-67
2022/01/09 14:10:41;;;;;;;17.70;4.00;;;;;;;;;;4976595;28;98549;-67
2022/01/09 14:13:15;;;;;;;13.57;3.20;;;;;;;;;;4975600;28;99977;-67
2022/01/09 14:15:43;;;;;;;15.50;2.92;;;;;;;;;;4976769;28;99525;-67
2022/01/09 14:18:22;;;;;;;16.05;3.10;;;;;;;;;;4983401;28;99667;-67
2022/01/09 14:20:51;;;;;;;13.35;3.75;;;;;;;;;;4975951;28;100967;-68
2022/01/09 14:23:20;;;;;;;17.42;3.33;;;;;;;;;;4975919;28;98968;-68
2022/01/09 14:25:46;;;;;;;17.50;3.45;;;;;;;;;;4976669;28;100038;-68
2022/01/09 14:28:14;;;;;;;18.02;3.50;;;;;;;;;;4979559;28;100391;-67
2022/01/09 14:30:40;;;;;;;17.27;3.28;;;;;;;;;;4978223;28;98619;-68
2022/01/09 14:33:08;;;;;;;16.85;3.53;;;;;;;;;;4969779;28;99376;-68